Almont Township, Michigan
Current Conditions -  °F | °C
As of 8:54 PM on Friday 31 Oct 2014 (Local Time) from KD95 Reporting Station
Light Rain Light Rain  
Wind Chill: 24°   Ceiling: 1200
Heat Index: 34°   Visibility: 7mi
Dew Point: 32°   Wind: 15mph
Humidity: 93%   Direction: 10°N
Pressure: 30.11"   Gusts: 25mph
Location:  42.9337°N, 83.0375°W
Report Text: KD95 010054Z AUTO 01013G22KT 7SM -RA OVC012 01/00 A3011 RMK AO2 T00100000
Loading
Personal Weather Stations






























Interactive Weather Map
Tropical Storm Tracking
New forecast layout! Learn more

10-Day Weather Forecast

Advertisements
Track Severe Weather on mobile